sensor_id;sensor_type;location;lat;lon;timestamp;P1;P2;P0
53658;PMS5003;41524;35.624;139.698;2023-04-03T00:00:14;17.00;16.00;
53658;PMS5003;41524;35.624;139.698;2023-04-03T00:05:15;13.00;13.00;
53658;PMS5003;41524;35.624;139.698;2023-04-03T00:10:10;15.00;14.00;
53658;PMS5003;41524;35.624;139.698;2023-04-03T00:15:10;16.00;16.00;
53658;PMS5003;41524;35.624;139.698;2023-04-03T00:20:15;21.00;19.00;
53658;PMS5003;41524;35.624;139.698;2023-04-03T00:25:10;18.00;18.00;
53658;PMS5003;41524;35.624;139.698;2023-04-03T00:30:14;18.00;18.00;
53658;PMS5003;41524;35.624;139.698;2023-04-03T00:35:09;17.00;16.00;
53658;PMS5003;41524;35.624;139.698;2023-04-03T00:40:14;18.00;16.00;
53658;PMS5003;41524;35.624;139.698;2023-04-03T00:45:31;14.00;14.00;
53658;PMS5003;41524;35.624;139.698;2023-04-03T00:50:14;21.00;19.00;
53658;PMS5003;41524;35.624;139.698;2023-04-03T00:55:14;14.00;13.00;
53658;PMS5003;41524;35.624;139.698;2023-04-03T01:00:20;19.00;17.00;
53658;PMS5003;41524;35.624;139.698;2023-04-03T01:05:09;18.00;14.00;
53658;PMS5003;41524;35.624;139.698;2023-04-03T01:10:15;15.00;14.00;
53658;PMS5003;41524;35.624;139.698;2023-04-03T01:15:10;17.00;17.00;
53658;PMS5003;41524;35.624;139.698;2023-04-03T01:20:21;16.00;14.00;
53658;PMS5003;41524;35.624;139.698;2023-04-03T01:25:12;21.00;20.00;
53658;PMS5003;41524;35.624;139.698;2023-04-03T01:30:12;14.00;13.00;
53658;PMS5003;41524;35.624;139.698;2023-04-03T01:35:14;14.00;12.00;
53658;PMS5003;41524;35.624;139.698;2023-04-03T01:40:10;16.00;16.00;
53658;PMS5003;41524;35.624;139.698;2023-04-03T01:45:15;16.00;16.00;
53658;PMS5003;41524;35.624;139.698;2023-04-03T01:50:09;24.00;23.00;
53658;PMS5003;41524;35.624;139.698;2023-04-03T01:55:09;16.00;13.00;
53658;PMS5003;41524;35.624;139.698;2023-04-03T02:00:13;14.00;14.00;
53658;PMS5003;41524;35.624;139.698;2023-04-03T02:05:14;14.00;14.00;
53658;PMS5003;41524;35.624;139.698;2023-04-03T02:10:10;21.00;19.00;
53658;PMS5003;41524;35.624;139.698;2023-04-03T02:15:10;14.00;14.00;
53658;PMS5003;41524;35.624;139.698;2023-04-03T02:20:09;16.00;16.00;
53658;PMS5003;41524;35.624;139.698;2023-04-03T02:25:09;19.00;19.00;
53658;PMS5003;41524;35.624;139.698;2023-04-03T02:30:15;16.00;14.00;
53658;PMS5003;41524;35.624;139.698;2023-04-03T02:35:10;12.00;12.00;
53658;PMS5003;41524;35.624;139.698;2023-04-03T02:40:09;25.00;23.00;
53658;PMS5003;41524;35.624;139.698;2023-04-03T02:50:09;13.00;12.00;
53658;PMS5003;41524;35.624;139.698;2023-04-03T02:55:08;13.00;12.00;
53658;PMS5003;41524;35.624;139.698;2023-04-03T03:00:09;17.00;16.00;
53658;PMS5003;41524;35.624;139.698;2023-04-03T03:05:10;17.00;16.00;
53658;PMS5003;41524;35.624;139.698;2023-04-03T03:10:09;15.00;13.00;
53658;PMS5003;41524;35.624;139.698;2023-04-03T03:15:10;15.00;14.00;
53658;PMS5003;41524;35.624;139.698;2023-04-03T03:20:09;18.00;17.00;
53658;PMS5003;41524;35.624;139.698;2023-04-03T03:25:09;20.00;20.00;
53658;PMS5003;41524;35.624;139.698;2023-04-03T03:30:09;15.00;14.00;
53658;PMS5003;41524;35.624;139.698;2023-04-03T03:35:14;18.00;17.00;
53658;PMS5003;41524;35.624;139.698;2023-04-03T03:40:19;16.00;16.00;
53658;PMS5003;41524;35.624;139.698;2023-04-03T03:45:14;17.00;15.00;
53658;PMS5003;41524;35.624;139.698;2023-04-03T03:50:09;21.00;17.00;
53658;PMS5003;41524;35.624;139.698;2023-04-03T03:55:09;12.00;12.00;
53658;PMS5003;41524;35.624;139.698;2023-04-03T04:00:09;19.00;17.00;
53658;PMS5003;41524;35.624;139.698;2023-04-03T04:05:14;17.00;15.00;
53658;PMS5003;41524;35.624;139.698;2023-04-03T04:10:10;15.00;15.00;
53658;PMS5003;41524;35.624;139.698;2023-04-03T04:15:09;12.00;11.00;
53658;PMS5003;41524;35.624;139.698;2023-04-03T04:20:09;14.00;12.00;
53658;PMS5003;41524;35.624;139.698;2023-04-03T04:25:09;14.00;13.00;
53658;PMS5003;41524;35.624;139.698;2023-04-03T04:30:13;13.00;11.00;
53658;PMS5003;41524;35.624;139.698;2023-04-03T04:35:11;10.00;10.00;
53658;PMS5003;41524;35.624;139.698;2023-04-03T04:40:14;13.00;13.00;
53658;PMS5003;41524;35.624;139.698;2023-04-03T04:45:10;15.00;13.00;
53658;PMS5003;41524;35.624;139.698;2023-04-03T04:50:09;15.00;13.00;
53658;PMS5003;41524;35.624;139.698;2023-04-03T04:55:10;14.00;13.00;
53658;PMS5003;41524;35.624;139.698;2023-04-03T05:00:14;15.00;13.00;
53658;PMS5003;41524;35.624;139.698;2023-04-03T05:05:13;15.00;14.00;
53658;PMS5003;41524;35.624;139.698;2023-04-03T05:10:20;15.00;13.00;
53658;PMS5003;41524;35.624;139.698;2023-04-03T05:15:14;15.00;15.00;
53658;PMS5003;41524;35.624;139.698;2023-04-03T05:20:09;14.00;12.00;
53658;PMS5003;41524;35.624;139.698;2023-04-03T05:25:11;13.00;13.00;
53658;PMS5003;41524;35.624;139.698;2023-04-03T05:30:09;15.00;13.00;
53658;PMS5003;41524;35.624;139.698;2023-04-03T05:35:14;13.00;13.00;
53658;PMS5003;41524;35.624;139.698;2023-04-03T05:40:09;11.00;11.00;
53658;PMS5003;41524;35.624;139.698;2023-04-03T05:45:10;17.00;16.00;
53658;PMS5003;41524;35.624;139.698;2023-04-03T05:50:13;16.00;16.00;
53658;PMS5003;41524;35.624;139.698;2023-04-03T05:55:15;11.00;10.00;
53658;PMS5003;41524;35.624;139.698;2023-04-03T06:00:14;14.00;13.00;
53658;PMS5003;41524;35.624;139.698;2023-04-03T06:05:14;9.00;9.00;
53658;PMS5003;41524;35.624;139.698;2023-04-03T06:10:10;15.00;14.00;
53658;PMS5003;41524;35.624;139.698;2023-04-03T06:15:09;15.00;15.00;
53658;PMS5003;41524;35.624;139.698;2023-04-03T06:20:09;14.00;13.00;
53658;PMS5003;41524;35.624;139.698;2023-04-03T06:25:19;13.00;13.00;
53658;PMS5003;41524;35.624;139.698;2023-04-03T06:30:09;17.00;17.00;
53658;PMS5003;41524;35.624;139.698;2023-04-03T06:35:11;20.00;20.00;
53658;PMS5003;41524;35.624;139.698;2023-04-03T06:40:10;11.00;11.00;
53658;PMS5003;41524;35.624;139.698;2023-04-03T06:45:14;14.00;12.00;
53658;PMS5003;41524;35.624;139.698;2023-04-03T06:50:10;14.00;14.00;
53658;PMS5003;41524;35.624;139.698;2023-04-03T06:55:09;14.00;11.00;
53658;PMS5003;41524;35.624;139.698;2023-04-03T07:00:10;14.00;14.00;
53658;PMS5003;41524;35.624;139.698;2023-04-03T07:05:10;15.00;13.00;
53658;PMS5003;41524;35.624;139.698;2023-04-03T07:10:14;14.00;12.00;
53658;PMS5003;41524;35.624;139.698;2023-04-03T07:15:10;18.00;18.00;
53658;PMS5003;41524;35.624;139.698;2023-04-03T07:20:10;14.00;14.00;
53658;PMS5003;41524;35.624;139.698;2023-04-03T07:25:10;10.00;10.00;
53658;PMS5003;41524;35.624;139.698;2023-04-03T07:30:09;17.00;16.00;
53658;PMS5003;41524;35.624;139.698;2023-04-03T07:35:10;19.00;19.00;
53658;PMS5003;41524;35.624;139.698;2023-04-03T07:40:10;15.00;13.00;
53658;PMS5003;41524;35.624;139.698;2023-04-03T07:45:14;13.00;12.00;
53658;PMS5003;41524;35.624;139.698;2023-04-03T07:50:09;20.00;19.00;
53658;PMS5003;41524;35.624;139.698;2023-04-03T07:55:10;14.00;14.00;
53658;PMS5003;41524;35.624;139.698;2023-04-03T08:00:10;16.00;15.00;
53658;PMS5003;41524;35.624;139.698;2023-04-03T08:05:10;16.00;14.00;
53658;PMS5003;41524;35.624;139.698;2023-04-03T08:10:14;13.00;11.00;
53658;PMS5003;41524;35.624;139.698;2023-04-03T08:15:10;13.00;12.00;
53658;PMS5003;41524;35.624;139.698;2023-04-03T08:20:10;12.00;12.00;
53658;PMS5003;41524;35.624;139.698;2023-04-03T08:25:14;12.00;12.00;
53658;PMS5003;41524;35.624;139.698;2023-04-03T08:30:09;16.00;11.00;
53658;PMS5003;41524;35.624;139.698;2023-04-03T08:35:15;15.00;13.00;
53658;PMS5003;41524;35.624;139.698;2023-04-03T08:40:12;11.00;9.00;
53658;PMS5003;41524;35.624;139.698;2023-04-03T08:45:09;10.00;10.00;
53658;PMS5003;41524;35.624;139.698;2023-04-03T08:50:11;13.00;13.00;
53658;PMS5003;41524;35.624;139.698;2023-04-03T08:55:14;9.00;7.00;
53658;PMS5003;41524;35.624;139.698;2023-04-03T09:00:15;8.00;8.00;
53658;PMS5003;41524;35.624;139.698;2023-04-03T09:05:11;9.00;7.00;
53658;PMS5003;41524;35.624;139.698;2023-04-03T09:10:10;5.00;5.00;
53658;PMS5003;41524;35.624;139.698;2023-04-03T09:15:17;7.00;7.00;
53658;PMS5003;41524;35.624;139.698;2023-04-03T09:20:19;5.00;5.00;
53658;PMS5003;41524;35.624;139.698;2023-04-03T09:25:11;4.00;4.00;
53658;PMS5003;41524;35.624;139.698;2023-04-03T09:30:13;6.00;6.00;
53658;PMS5003;41524;35.624;139.698;2023-04-03T09:35:15;6.00;6.00;
53658;PMS5003;41524;35.624;139.698;2023-04-03T09:40:40;5.00;5.00;
53658;PMS5003;41524;35.624;139.698;2023-04-03T09:45:21;5.00;5.00;
53658;PMS5003;41524;35.624;139.698;2023-04-03T09:50:20;8.00;6.00;
53658;PMS5003;41524;35.624;139.698;2023-04-03T09:55:14;9.00;6.00;
53658;PMS5003;41524;35.624;139.698;2023-04-03T10:00:19;5.00;5.00;
53658;PMS5003;41524;35.624;139.698;2023-04-03T10:05:25;9.00;8.00;
53658;PMS5003;41524;35.624;139.698;2023-04-03T10:10:17;5.00;4.00;
53658;PMS5003;41524;35.624;139.698;2023-04-03T10:15:12;9.00;9.00;
53658;PMS5003;41524;35.624;139.698;2023-04-03T10:20:21;7.00;6.00;
53658;PMS5003;41524;35.624;139.698;2023-04-03T10:25:12;6.00;6.00;
53658;PMS5003;41524;35.624;139.698;2023-04-03T10:30:15;8.00;6.00;
53658;PMS5003;41524;35.624;139.698;2023-04-03T10:35:10;9.00;7.00;
53658;PMS5003;41524;35.624;139.698;2023-04-03T10:40:13;8.00;7.00;
53658;PMS5003;41524;35.624;139.698;2023-04-03T10:45:17;8.00;8.00;
53658;PMS5003;41524;35.624;139.698;2023-04-03T10:50:15;4.00;4.00;
53658;PMS5003;41524;35.624;139.698;2023-04-03T10:55:21;6.00;6.00;
53658;PMS5003;41524;35.624;139.698;2023-04-03T11:00:16;5.00;5.00;
53658;PMS5003;41524;35.624;139.698;2023-04-03T11:05:15;7.00;5.00;
53658;PMS5003;41524;35.624;139.698;2023-04-03T11:10:11;6.00;6.00;
53658;PMS5003;41524;35.624;139.698;2023-04-03T11:15:15;8.00;7.00;
53658;PMS5003;41524;35.624;139.698;2023-04-03T11:20:16;6.00;6.00;
53658;PMS5003;41524;35.624;139.698;2023-04-03T11:25:14;8.00;6.00;
53658;PMS5003;41524;35.624;139.698;2023-04-03T11:30:15;7.00;5.00;
53658;PMS5003;41524;35.624;139.698;2023-04-03T11:35:10;6.00;6.00;
53658;PMS5003;41524;35.624;139.698;2023-04-03T11:40:18;6.00;6.00;
53658;PMS5003;41524;35.624;139.698;2023-04-03T11:45:22;9.00;6.00;
53658;PMS5003;41524;35.624;139.698;2023-04-03T11:50:44;6.00;6.00;
53658;PMS5003;41524;35.624;139.698;2023-04-03T11:55:41;9.00;9.00;
53658;PMS5003;41524;35.624;139.698;2023-04-03T12:01:43;8.00;7.00;
53658;PMS5003;41524;35.624;139.698;2023-04-03T12:05:28;7.00;5.00;
53658;PMS5003;41524;35.624;139.698;2023-04-03T12:10:15;7.00;7.00;
53658;PMS5003;41524;35.624;139.698;2023-04-03T12:16:19;7.00;7.00;
53658;PMS5003;41524;35.624;139.698;2023-04-03T12:20:46;6.00;6.00;
53658;PMS5003;41524;35.624;139.698;2023-04-03T12:25:40;10.00;7.00;
53658;PMS5003;41524;35.624;139.698;2023-04-03T12:30:13;7.00;5.00;
53658;PMS5003;41524;35.624;139.698;2023-04-03T12:35:16;11.00;8.00;
53658;PMS5003;41524;35.624;139.698;2023-04-03T12:40:11;6.00;6.00;
53658;PMS5003;41524;35.624;139.698;2023-04-03T12:45:11;6.00;6.00;
53658;PMS5003;41524;35.624;139.698;2023-04-03T12:50:17;5.00;5.00;
53658;PMS5003;41524;35.624;139.698;2023-04-03T12:55:14;8.00;7.00;
53658;PMS5003;41524;35.624;139.698;2023-04-03T13:00:43;6.00;6.00;
53658;PMS5003;41524;35.624;139.698;2023-04-03T13:05:16;10.00;9.00;
53658;PMS5003;41524;35.624;139.698;2023-04-03T13:10:14;10.00;8.00;
53658;PMS5003;41524;35.624;139.698;2023-04-03T13:15:13;8.00;6.00;
53658;PMS5003;41524;35.624;139.698;2023-04-03T13:20:18;9.00;9.00;
53658;PMS5003;41524;35.624;139.698;2023-04-03T13:25:10;14.00;13.00;
53658;PMS5003;41524;35.624;139.698;2023-04-03T13:30:20;9.00;8.00;
53658;PMS5003;41524;35.624;139.698;2023-04-03T13:35:46;7.00;7.00;
53658;PMS5003;41524;35.624;139.698;2023-04-03T13:40:11;8.00;7.00;
53658;PMS5003;41524;35.624;139.698;2023-04-03T13:45:17;9.00;7.00;
53658;PMS5003;41524;35.624;139.698;2023-04-03T13:50:14;7.00;7.00;
53658;PMS5003;41524;35.624;139.698;2023-04-03T13:55:16;9.00;8.00;
53658;PMS5003;41524;35.624;139.698;2023-04-03T14:00:34;10.00;8.00;
53658;PMS5003;41524;35.624;139.698;2023-04-03T14:05:15;11.00;9.00;
53658;PMS5003;41524;35.624;139.698;2023-04-03T14:10:09;8.00;8.00;
53658;PMS5003;41524;35.624;139.698;2023-04-03T14:15:14;6.00;6.00;
53658;PMS5003;41524;35.624;139.698;2023-04-03T14:20:10;9.00;9.00;
53658;PMS5003;41524;35.624;139.698;2023-04-03T14:25:14;7.00;7.00;
53658;PMS5003;41524;35.624;139.698;2023-04-03T14:30:12;10.00;8.00;
53658;PMS5003;41524;35.624;139.698;2023-04-03T14:35:10;11.00;8.00;
53658;PMS5003;41524;35.624;139.698;2023-04-03T14:40:11;8.00;8.00;
53658;PMS5003;41524;35.624;139.698;2023-04-03T14:45:15;7.00;7.00;
53658;PMS5003;41524;35.624;139.698;2023-04-03T14:50:15;8.00;6.00;
53658;PMS5003;41524;35.624;139.698;2023-04-03T14:55:12;8.00;7.00;
53658;PMS5003;41524;35.624;139.698;2023-04-03T15:00:12;11.00;10.00;
53658;PMS5003;41524;35.624;139.698;2023-04-03T15:05:14;8.00;8.00;
53658;PMS5003;41524;35.624;139.698;2023-04-03T15:10:15;6.00;6.00;
53658;PMS5003;41524;35.624;139.698;2023-04-03T15:15:09;14.00;13.00;
53658;PMS5003;41524;35.624;139.698;2023-04-03T15:20:15;10.00;9.00;
53658;PMS5003;41524;35.624;139.698;2023-04-03T15:25:12;16.00;16.00;
53658;PMS5003;41524;35.624;139.698;2023-04-03T15:30:23;7.00;7.00;
53658;PMS5003;41524;35.624;139.698;2023-04-03T15:35:15;11.00;9.00;
53658;PMS5003;41524;35.624;139.698;2023-04-03T15:40:10;11.00;10.00;
53658;PMS5003;41524;35.624;139.698;2023-04-03T15:45:09;8.00;8.00;
53658;PMS5003;41524;35.624;139.698;2023-04-03T15:50:10;9.00;9.00;
53658;PMS5003;41524;35.624;139.698;2023-04-03T15:55:09;7.00;6.00;
53658;PMS5003;41524;35.624;139.698;2023-04-03T16:00:10;14.00;11.00;
53658;PMS5003;41524;35.624;139.698;2023-04-03T16:05:14;10.00;8.00;
53658;PMS5003;41524;35.624;139.698;2023-04-03T16:10:10;10.00;9.00;
53658;PMS5003;41524;35.624;139.698;2023-04-03T16:15:13;7.00;7.00;
53658;PMS5003;41524;35.624;139.698;2023-04-03T16:20:10;14.00;14.00;
53658;PMS5003;41524;35.624;139.698;2023-04-03T16:25:09;8.00;8.00;
53658;PMS5003;41524;35.624;139.698;2023-04-03T16:30:10;10.00;10.00;
53658;PMS5003;41524;35.624;139.698;2023-04-03T16:35:09;7.00;7.00;
53658;PMS5003;41524;35.624;139.698;2023-04-03T16:40:13;15.00;12.00;
53658;PMS5003;41524;35.624;139.698;2023-04-03T16:45:16;17.00;15.00;
53658;PMS5003;41524;35.624;139.698;2023-04-03T16:50:09;12.00;11.00;
53658;PMS5003;41524;35.624;139.698;2023-04-03T16:55:11;11.00;11.00;
53658;PMS5003;41524;35.624;139.698;2023-04-03T17:00:09;11.00;11.00;
53658;PMS5003;41524;35.624;139.698;2023-04-03T17:05:11;10.00;10.00;
53658;PMS5003;41524;35.624;139.698;2023-04-03T17:10:09;10.00;7.00;
53658;PMS5003;41524;35.624;139.698;2023-04-03T17:15:15;14.00;11.00;
53658;PMS5003;41524;35.624;139.698;2023-04-03T17:20:10;12.00;10.00;
53658;PMS5003;41524;35.624;139.698;2023-04-03T17:25:09;10.00;9.00;
53658;PMS5003;41524;35.624;139.698;2023-04-03T17:30:14;13.00;11.00;
53658;PMS5003;41524;35.624;139.698;2023-04-03T17:35:10;14.00;14.00;
53658;PMS5003;41524;35.624;139.698;2023-04-03T17:40:10;10.00;10.00;
53658;PMS5003;41524;35.624;139.698;2023-04-03T17:45:18;12.00;10.00;
53658;PMS5003;41524;35.624;139.698;2023-04-03T17:50:09;8.00;6.00;
53658;PMS5003;41524;35.624;139.698;2023-04-03T17:55:08;9.00;8.00;
53658;PMS5003;41524;35.624;139.698;2023-04-03T18:00:13;15.00;13.00;
53658;PMS5003;41524;35.624;139.698;2023-04-03T18:05:09;14.00;11.00;
53658;PMS5003;41524;35.624;139.698;2023-04-03T18:10:09;13.00;12.00;
53658;PMS5003;41524;35.624;139.698;2023-04-03T18:15:10;12.00;10.00;
53658;PMS5003;41524;35.624;139.698;2023-04-03T18:20:10;11.00;11.00;
53658;PMS5003;41524;35.624;139.698;2023-04-03T18:25:09;12.00;10.00;
53658;PMS5003;41524;35.624;139.698;2023-04-03T18:30:10;11.00;10.00;
53658;PMS5003;41524;35.624;139.698;2023-04-03T18:35:09;14.00;14.00;
53658;PMS5003;41524;35.624;139.698;2023-04-03T18:40:09;18.00;16.00;
53658;PMS5003;41524;35.624;139.698;2023-04-03T18:45:10;11.00;9.00;
53658;PMS5003;41524;35.624;139.698;2023-04-03T18:50:10;13.00;12.00;
53658;PMS5003;41524;35.624;139.698;2023-04-03T18:55:10;13.00;12.00;
53658;PMS5003;41524;35.624;139.698;2023-04-03T19:00:16;10.00;9.00;
53658;PMS5003;41524;35.624;139.698;2023-04-03T19:05:12;14.00;14.00;
53658;PMS5003;41524;35.624;139.698;2023-04-03T19:10:09;10.00;9.00;
53658;PMS5003;41524;35.624;139.698;2023-04-03T19:15:09;12.00;11.00;
53658;PMS5003;41524;35.624;139.698;2023-04-03T19:20:19;13.00;13.00;
53658;PMS5003;41524;35.624;139.698;2023-04-03T19:25:10;14.00;11.00;
53658;PMS5003;41524;35.624;139.698;2023-04-03T19:30:10;13.00;10.00;
53658;PMS5003;41524;35.624;139.698;2023-04-03T19:35:15;14.00;13.00;
53658;PMS5003;41524;35.624;139.698;2023-04-03T19:40:10;15.00;14.00;
53658;PMS5003;41524;35.624;139.698;2023-04-03T19:45:10;12.00;11.00;
53658;PMS5003;41524;35.624;139.698;2023-04-03T19:50:15;10.00;9.00;
53658;PMS5003;41524;35.624;139.698;2023-04-03T19:55:09;15.00;10.00;
53658;PMS5003;41524;35.624;139.698;2023-04-03T20:00:10;11.00;11.00;
53658;PMS5003;41524;35.624;139.698;2023-04-03T20:05:13;11.00;11.00;
53658;PMS5003;41524;35.624;139.698;2023-04-03T20:10:11;12.00;12.00;
53658;PMS5003;41524;35.624;139.698;2023-04-03T20:15:10;17.00;14.00;
53658;PMS5003;41524;35.624;139.698;2023-04-03T20:20:09;25.00;21.00;
53658;PMS5003;41524;35.624;139.698;2023-04-03T20:25:10;22.00;21.00;
53658;PMS5003;41524;35.624;139.698;2023-04-03T20:30:12;19.00;19.00;
53658;PMS5003;41524;35.624;139.698;2023-04-03T20:35:14;17.00;17.00;
53658;PMS5003;41524;35.624;139.698;2023-04-03T20:40:09;16.00;13.00;
53658;PMS5003;41524;35.624;139.698;2023-04-03T20:45:09;16.00;13.00;
53658;PMS5003;41524;35.624;139.698;2023-04-03T20:50:15;17.00;15.00;
53658;PMS5003;41524;35.624;139.698;2023-04-03T20:55:09;12.00;12.00;
53658;PMS5003;41524;35.624;139.698;2023-04-03T21:00:15;23.00;22.00;
53658;PMS5003;41524;35.624;139.698;2023-04-03T21:05:12;21.00;20.00;
53658;PMS5003;41524;35.624;139.698;2023-04-03T21:20:10;16.00;14.00;
53658;PMS5003;41524;35.624;139.698;2023-04-03T21:25:11;15.00;15.00;
53658;PMS5003;41524;35.624;139.698;2023-04-03T21:30:15;20.00;17.00;
53658;PMS5003;41524;35.624;139.698;2023-04-03T21:35:10;19.00;18.00;
53658;PMS5003;41524;35.624;139.698;2023-04-03T21:40:15;22.00;19.00;
53658;PMS5003;41524;35.624;139.698;2023-04-03T21:45:13;17.00;17.00;
53658;PMS5003;41524;35.624;139.698;2023-04-03T21:55:10;29.00;26.00;
53658;PMS5003;41524;35.624;139.698;2023-04-03T22:00:14;23.00;22.00;
53658;PMS5003;41524;35.624;139.698;2023-04-03T22:05:09;19.00;18.00;
53658;PMS5003;41524;35.624;139.698;2023-04-03T22:10:10;22.00;17.00;
53658;PMS5003;41524;35.624;139.698;2023-04-03T22:15:09;19.00;19.00;
53658;PMS5003;41524;35.624;139.698;2023-04-03T22:20:10;18.00;17.00;
53658;PMS5003;41524;35.624;139.698;2023-04-03T22:25:09;20.00;20.00;
53658;PMS5003;41524;35.624;139.698;2023-04-03T22:30:14;26.00;22.00;
53658;PMS5003;41524;35.624;139.698;2023-04-03T22:35:16;22.00;20.00;
53658;PMS5003;41524;35.624;139.698;2023-04-03T22:40:09;21.00;20.00;
53658;PMS5003;41524;35.624;139.698;2023-04-03T22:45:15;25.00;23.00;
53658;PMS5003;41524;35.624;139.698;2023-04-03T22:50:15;17.00;17.00;
53658;PMS5003;41524;35.624;139.698;2023-04-03T22:55:09;25.00;24.00;
53658;PMS5003;41524;35.624;139.698;2023-04-03T23:00:14;22.00;21.00;
53658;PMS5003;41524;35.624;139.698;2023-04-03T23:05:09;25.00;22.00;
53658;PMS5003;41524;35.624;139.698;2023-04-03T23:10:09;27.00;26.00;
53658;PMS5003;41524;35.624;139.698;2023-04-03T23:15:10;24.00;21.00;
53658;PMS5003;41524;35.624;139.698;2023-04-03T23:20:14;28.00;24.00;
53658;PMS5003;41524;35.624;139.698;2023-04-03T23:25:09;24.00;21.00;
53658;PMS5003;41524;35.624;139.698;2023-04-03T23:30:10;26.00;26.00;
53658;PMS5003;41524;35.624;139.698;2023-04-03T23:35:09;25.00;25.00;
53658;PMS5003;41524;35.624;139.698;2023-04-03T23:40:21;23.00;23.00;
53658;PMS5003;41524;35.624;139.698;2023-04-03T23:45:10;19.00;17.00;
53658;PMS5003;41524;35.624;139.698;2023-04-03T23:50:09;21.00;19.00;
53658;PMS5003;41524;35.624;139.698;2023-04-03T23:55:09;24.00;23.00;
